TimeMST,TemperatureF,Dew PointF,Humidity,Sea Level PressureIn,VisibilityMPH,Wind Direction,Wind SpeedMPH,Gust SpeedMPH,PrecipitationIn,Events,Conditions,WindDirDegrees,DateUTC
12:57 AM,63.0,53.1,70,30.03,10.0,SSW,5.8,-,N/A,,Mostly Cloudy,210,2013-08-17 07:57:00
1:57 AM,64.9,48.0,54,30.04,10.0,WNW,3.5,-,N/A,,Partly Cloudy,300,2013-08-17 08:57:00
2:57 AM,60.1,50.0,69,30.09,10.0,Calm,Calm,-,N/A,,Clear,0,2013-08-17 09:57:00
3:57 AM,57.0,50.0,77,30.06,10.0,Calm,Calm,-,N/A,,Clear,0,2013-08-17 10:57:00
4:57 AM,55.9,51.1,84,30.07,10.0,Calm,Calm,-,N/A,,Clear,0,2013-08-17 11:57:00
5:57 AM,55.0,48.9,80,30.08,10.0,Calm,Calm,-,N/A,,Clear,0,2013-08-17 12:57:00
6:57 AM,59.0,52.0,78,30.11,10.0,Calm,Calm,-,N/A,,Clear,0,2013-08-17 13:57:00
7:57 AM,68.0,53.1,59,30.10,10.0,Calm,Calm,-,N/A,,Mostly Cloudy,0,2013-08-17 14:57:00
8:57 AM,77.0,50.0,39,30.07,10.0,NNE,3.5,-,N/A,,Clear,20,2013-08-17 15:57:00
9:57 AM,80.1,46.9,31,30.06,10.0,East,5.8,-,N/A,,Clear,90,2013-08-17 16:57:00
10:57 AM,79.0,45.0,30,30.06,10.0,South,6.9,-,N/A,,Mostly Cloudy,190,2013-08-17 17:57:00
11:57 AM,66.0,54.0,65,30.06,8.0,Variable,4.6,-,0.01,Rain,Light Rain,0,2013-08-17 18:57:00
12:57 PM,73.0,51.1,46,30.04,10.0,East,15.0,21.9,0.01,Thunderstorm,Thunderstorm,90,2013-08-17 19:57:00
1:09 PM,64.4,51.8,64,30.39,1.8,SE,11.5,18.4,0.04,Rain-Thunderstorm,Heavy Thunderstorms and Rain,130,2013-08-17 20:09:00
1:21 PM,60.8,53.6,77,30.38,3.0,NE,10.4,-,0.43,Rain-Thunderstorm,Light Thunderstorms and Rain,50,2013-08-17 20:21:00
1:57 PM,64.9,55.0,70,30.07,10.0,NE,9.2,-,0.43,Thunderstorm,Thunderstorm,50,2013-08-17 20:57:00
2:57 PM,71.1,54.0,55,30.05,10.0,ENE,5.8,-,N/A,,Scattered Clouds,70,2013-08-17 21:57:00
3:57 PM,69.1,54.0,58,30.08,10.0,Variable,5.8,-,N/A,,Overcast,0,2013-08-17 22:57:00
4:57 PM,62.1,54.0,75,30.14,7.0,Calm,Calm,-,0.00,Rain,Light Rain,0,2013-08-17 23:57:00
5:57 PM,59.0,54.0,83,30.14,10.0,North,8.1,-,0.09,Rain,Light Rain,360,2013-08-18 00:57:00
6:57 PM,59.0,55.0,87,30.16,10.0,Calm,Calm,-,0.00,,Overcast,0,2013-08-18 01:57:00
7:57 PM,57.9,55.0,90,30.15,10.0,Calm,Calm,-,0.02,Rain,Light Rain,0,2013-08-18 02:57:00
8:57 PM,57.9,53.1,84,30.13,10.0,Calm,Calm,-,0.00,Rain,Light Rain,0,2013-08-18 03:57:00
9:57 PM,55.9,54.0,93,30.10,10.0,Calm,Calm,-,0.01,Rain,Light Rain,0,2013-08-18 04:57:00
10:57 PM,57.0,54.0,89,30.02,10.0,Variable,4.6,-,0.00,,Scattered Clouds,0,2013-08-18 05:57:00
11:57 PM,57.0,54.0,89,30.09,10.0,Calm,Calm,-,N/A,,Mostly Cloudy,0,2013-08-18 06:57:00